Time;durP1;ratioP1;P1;durP2;ratioP2;P2;SDS_P1;SDS_P2;PMS_P1;PMS_P2;Temp;Humidity;BMP_temperature;BMP_pressure;BME280_temperature;BME280_humidity;BME280_pressure;Samples;Min_cycle;Max_cycle;Signal;HPM_P1;HPM_P2
2022/10/30 04:01:57;;;;;;;9.80;3.22;;;19.70;59.50;;;;;;5163581;23;45823;-64
2022/10/30 04:04:23;;;;;;;8.50;3.30;;;19.70;59.40;;;;;;4849779;29;46814;-62
2022/10/30 04:06:48;;;;;;;16.95;4.00;;;19.70;59.50;;;;;;4867657;29;45056;-63
2022/10/30 04:09:14;;;;;;;8.57;3.70;;;19.60;59.40;;;;;;4876790;28;46259;-61
2022/10/30 04:11:39;;;;;;;12.10;3.63;;;19.60;59.40;;;;;;4869288;29;45624;-59
2022/10/30 04:14:05;;;;;;;10.15;3.40;;;19.70;59.40;;;;;;4861578;29;45049;-64
2022/10/30 04:16:30;;;;;;;9.15;4.20;;;19.70;59.30;;;;;;4854485;29;45546;-62
2022/10/30 04:18:56;;;;;;;10.50;3.80;;;19.70;59.20;;;;;;4860960;29;45209;-63
2022/10/30 04:21:22;;;;;;;11.45;3.70;;;19.70;59.10;;;;;;4864685;29;45472;-64
2022/10/30 04:23:48;;;;;;;8.57;3.83;;;19.70;59.20;;;;;;4862955;29;46054;-64
2022/10/30 04:26:14;;;;;;;8.35;4.05;;;19.70;59.20;;;;;;4867895;29;44661;-64
2022/10/30 04:28:39;;;;;;;11.98;3.40;;;19.70;59.10;;;;;;4869353;29;45468;-64
2022/10/30 04:31:05;;;;;;;7.32;3.45;;;19.70;59.10;;;;;;4861989;29;45117;-64
2022/10/30 04:33:30;;;;;;;10.18;3.80;;;19.70;59.00;;;;;;4862845;29;45972;-62
2022/10/30 04:35:56;;;;;;;8.40;3.90;;;19.80;59.00;;;;;;4851099;29;45796;-63
2022/10/30 04:38:21;;;;;;;8.02;3.53;;;19.80;59.00;;;;;;4857897;29;45535;-64
2022/10/30 04:40:47;;;;;;;6.43;3.40;;;19.80;59.00;;;;;;4856878;29;45598;-65
2022/10/30 04:43:13;;;;;;;7.65;3.30;;;19.80;59.00;;;;;;4863600;29;46069;-64
2022/10/30 04:45:38;;;;;;;9.88;3.78;;;19.80;58.90;;;;;;4861226;29;45376;-64
2022/10/30 04:48:15;;;;;;;8.25;3.72;;;19.80;58.80;;;;;;4856171;29;45216;-63
2022/10/30 04:50:41;;;;;;;6.35;3.10;;;19.80;58.80;;;;;;4861879;29;45524;-64
2022/10/30 04:53:16;;;;;;;7.13;3.40;;;19.70;58.80;;;;;;4854932;29;46573;-64
2022/10/30 04:55:43;;;;;;;7.68;3.15;;;19.70;58.70;;;;;;4854640;29;45551;-63
2022/10/30 04:58:08;;;;;;;12.60;3.80;;;19.70;58.80;;;;;;4859976;29;45454;-63
2022/10/30 05:00:34;;;;;;;6.57;3.75;;;19.70;58.80;;;;;;4856726;29;45215;-63
2022/10/30 05:03:00;;;;;;;8.43;3.58;;;19.70;58.80;;;;;;4859600;29;44990;-63
2022/10/30 05:05:26;;;;;;;8.00;3.78;;;19.70;58.80;;;;;;4858911;29;45665;-63
2022/10/30 05:07:52;;;;;;;11.90;3.72;;;19.70;58.60;;;;;;4856242;29;45086;-64
2022/10/30 05:10:18;;;;;;;6.32;3.38;;;19.70;58.60;;;;;;4874327;29;46301;-62
2022/10/30 05:12:43;;;;;;;9.90;3.70;;;19.70;58.60;;;;;;4864300;29;47001;-63
2022/10/30 05:15:09;;;;;;;15.40;3.60;;;19.70;58.60;;;;;;4857453;29;45236;-64
2022/10/30 05:17:35;;;;;;;7.30;3.55;;;19.70;58.50;;;;;;4859415;29;45221;-62
2022/10/30 05:20:00;;;;;;;9.90;3.40;;;19.70;58.40;;;;;;4859119;29;45315;-61
2022/10/30 05:22:26;;;;;;;8.80;2.55;;;19.70;58.10;;;;;;4867097;29;45057;-61
2022/10/30 05:24:51;;;;;;;10.63;2.92;;;19.70;58.20;;;;;;4858803;29;45521;-64
2022/10/30 05:27:17;;;;;;;6.07;3.15;;;19.70;58.10;;;;;;4853215;29;45451;-62
2022/10/30 05:29:42;;;;;;;9.48;3.70;;;19.60;57.90;;;;;;4864286;29;44894;-62
2022/10/30 05:32:08;;;;;;;10.38;3.00;;;19.60;58.00;;;;;;4855611;29;46166;-62
2022/10/30 05:34:33;;;;;;;4.68;2.97;;;19.60;58.10;;;;;;4856089;29;45355;-63
2022/10/30 05:37:00;;;;;;;9.40;3.28;;;19.60;58.00;;;;;;4863630;29;45376;-63
2022/10/30 05:39:26;;;;;;;8.30;3.47;;;19.50;57.90;;;;;;4857985;29;45333;-62
2022/10/30 05:41:51;;;;;;;9.73;3.28;;;19.50;58.00;;;;;;4862326;29;45787;-60
2022/10/30 05:44:17;;;;;;;8.38;3.30;;;19.50;58.00;;;;;;4862470;29;45415;-62
2022/10/30 05:46:42;;;;;;;11.00;3.17;;;19.50;58.10;;;;;;4859442;29;45267;-62
2022/10/30 05:49:08;;;;;;;8.15;3.10;;;19.50;58.20;;;;;;4856820;29;45813;-63
2022/10/30 05:51:33;;;;;;;11.65;3.55;;;19.40;58.20;;;;;;4863829;29;45505;-62
2022/10/30 05:53:59;;;;;;;6.20;3.25;;;19.40;58.30;;;;;;4862658;29;45403;-63
2022/10/30 05:56:24;;;;;;;5.38;3.08;;;19.40;58.30;;;;;;4865133;29;45509;-61
2022/10/30 05:58:50;;;;;;;7.65;3.08;;;19.40;58.30;;;;;;4858159;29;45341;-61
2022/10/30 06:01:16;;;;;;;18.25;3.78;;;19.40;58.30;;;;;;4859969;29;45126;-62
2022/10/30 06:03:42;;;;;;;7.45;3.10;;;19.40;58.30;;;;;;4859634;29;45510;-61
2022/10/30 06:06:08;;;;;;;10.00;3.58;;;19.40;58.20;;;;;;4861789;29;45272;-64
2022/10/30 06:08:33;;;;;;;5.60;2.92;;;19.40;58.20;;;;;;4865615;29;45645;-62
2022/10/30 06:10:59;;;;;;;10.43;3.58;;;19.40;58.10;;;;;;4859006;29;45062;-63
2022/10/30 06:13:24;;;;;;;8.63;3.67;;;19.40;58.10;;;;;;4859288;29;45676;-63
2022/10/30 06:15:51;;;;;;;8.80;3.13;;;19.40;58.10;;;;;;4861515;29;44765;-62
2022/10/30 06:18:17;;;;;;;14.05;3.67;;;19.40;58.00;;;;;;4858410;29;45580;-63
2022/10/30 06:20:42;;;;;;;8.48;3.65;;;19.40;58.10;;;;;;4861869;29;46919;-61
2022/10/30 06:23:08;;;;;;;9.68;3.28;;;19.40;58.10;;;;;;4862855;29;45526;-62
2022/10/30 06:25:34;;;;;;;9.15;4.13;;;19.40;58.10;;;;;;4863506;29;45230;-62
2022/10/30 06:28:00;;;;;;;6.55;3.33;;;19.40;58.10;;;;;;4863300;29;46246;-62
2022/10/30 06:30:26;;;;;;;9.18;3.38;;;19.40;58.10;;;;;;4855376;29;46194;-59
2022/10/30 06:33:01;;;;;;;6.72;3.35;;;19.40;58.10;;;;;;4863755;29;45320;-61
2022/10/30 06:35:27;;;;;;;8.80;3.28;;;19.40;58.10;;;;;;4854268;29;45573;-61
2022/10/30 06:37:54;;;;;;;11.85;3.55;;;19.40;58.10;;;;;;4865405;29;44704;-61
2022/10/30 06:40:19;;;;;;;8.98;3.58;;;19.40;58.10;;;;;;4857296;29;46350;-63
2022/10/30 06:42:46;;;;;;;8.63;3.05;;;19.30;58.10;;;;;;4852818;29;45233;-60
2022/10/30 06:45:11;;;;;;;11.63;3.80;;;19.40;58.20;;;;;;4867573;29;45474;-62
2022/10/30 06:47:37;;;;;;;12.60;3.72;;;19.40;58.20;;;;;;4859600;29;45338;-61
2022/10/30 06:50:04;;;;;;;12.73;4.07;;;19.30;58.10;;;;;;4862694;29;45877;-62
2022/10/30 06:52:29;;;;;;;8.52;3.90;;;19.30;58.10;;;;;;4860307;29;45342;-63
2022/10/30 06:54:55;;;;;;;9.50;3.70;;;19.30;58.20;;;;;;4863656;29;45514;-64
2022/10/30 06:57:21;;;;;;;10.73;3.50;;;19.30;58.30;;;;;;4869046;29;45244;-62
2022/10/30 06:59:46;;;;;;;10.70;4.03;;;19.30;59.00;;;;;;4860866;29;46068;-62
2022/10/30 07:02:12;;;;;;;8.25;3.47;;;19.30;58.50;;;;;;4859542;29;45519;-62
2022/10/30 07:04:37;;;;;;;8.80;4.13;;;19.20;58.60;;;;;;4870120;29;45312;-61
2022/10/30 07:07:03;;;;;;;7.28;3.85;;;19.20;58.70;;;;;;4861575;29;45149;-63
2022/10/30 07:09:29;;;;;;;8.55;3.65;;;19.20;58.70;;;;;;4859558;29;45475;-61
2022/10/30 07:11:54;;;;;;;11.95;3.50;;;19.20;58.80;;;;;;4859831;29;45477;-62
2022/10/30 07:14:20;;;;;;;10.30;3.95;;;19.20;58.90;;;;;;4865757;29;45242;-63
2022/10/30 07:16:46;;;;;;;8.88;3.60;;;19.20;59.00;;;;;;4860856;29;44641;-63
2022/10/30 07:19:12;;;;;;;8.32;3.97;;;19.20;59.00;;;;;;4862481;29;46013;-62
2022/10/30 07:21:37;;;;;;;7.78;3.50;;;19.20;59.00;;;;;;4863779;29;44952;-62
2022/10/30 07:24:03;;;;;;;9.38;3.45;;;19.20;59.10;;;;;;4858995;29;45166;-62
2022/10/30 07:26:29;;;;;;;8.38;3.60;;;19.20;59.20;;;;;;4861503;29;45380;-62
2022/10/30 07:28:54;;;;;;;8.10;3.42;;;19.20;59.20;;;;;;4866984;29;45916;-62
2022/10/30 07:31:20;;;;;;;8.65;3.22;;;19.20;59.30;;;;;;4859237;29;45384;-61
2022/10/30 07:33:45;;;;;;;9.70;4.00;;;19.20;59.40;;;;;;4864166;29;45330;-62
2022/10/30 07:36:11;;;;;;;12.23;3.75;;;19.20;59.50;;;;;;4858597;29;45633;-63
2022/10/30 07:38:37;;;;;;;9.70;4.22;;;19.20;59.60;;;;;;4849452;29;46143;-63
2022/10/30 07:41:02;;;;;;;10.15;3.72;;;19.20;59.70;;;;;;4858031;29;45280;-62
2022/10/30 07:43:28;;;;;;;9.15;3.97;;;19.20;59.70;;;;;;4856459;29;45864;-61
2022/10/30 07:45:54;;;;;;;6.45;3.67;;;19.10;59.80;;;;;;4861891;29;45517;-62
2022/10/30 07:48:19;;;;;;;11.95;4.05;;;19.10;59.80;;;;;;4859436;29;46981;-63
2022/10/30 07:50:45;;;;;;;8.05;3.75;;;19.20;60.00;;;;;;4856603;29;45628;-62
2022/10/30 07:53:10;;;;;;;12.07;3.85;;;19.10;60.10;;;;;;4858801;29;45514;-62
2022/10/30 07:55:36;;;;;;;9.00;3.72;;;19.10;60.10;;;;;;4862571;29;45514;-62
2022/10/30 07:58:01;;;;;;;9.32;3.92;;;19.10;60.10;;;;;;4860827;29;45623;-63
2022/10/30 08:00:27;;;;;;;12.38;4.30;;;19.20;60.40;;;;;;4858122;29;46868;-63
2022/10/30 08:02:55;;;;;;;11.00;4.03;;;19.10;60.30;;;;;;4857329;29;45532;-63
2022/10/30 08:05:20;;;;;;;8.93;3.97;;;19.20;60.50;;;;;;4856388;29;46495;-62
2022/10/30 08:07:47;;;;;;;10.10;3.97;;;19.20;60.50;;;;;;4863241;29;46619;-62
2022/10/30 08:10:12;;;;;;;10.85;4.22;;;19.20;60.50;;;;;;4861394;29;45453;-62
2022/10/30 08:12:39;;;;;;;9.27;3.47;;;19.20;60.70;;;;;;4857139;29;45354;-62
2022/10/30 08:15:06;;;;;;;9.90;3.45;;;19.20;60.80;;;;;;4851634;29;46378;-62
2022/10/30 08:17:31;;;;;;;14.48;3.38;;;19.20;60.90;;;;;;4861841;29;46147;-63
2022/10/30 08:19:57;;;;;;;6.63;3.72;;;19.20;61.00;;;;;;4862071;29;45221;-63
2022/10/30 08:22:22;;;;;;;12.00;4.28;;;19.20;61.00;;;;;;4853972;29;45522;-62
2022/10/30 08:24:48;;;;;;;7.68;3.63;;;19.20;61.10;;;;;;4860150;29;45350;-62
2022/10/30 08:27:14;;;;;;;14.13;3.88;;;19.20;61.30;;;;;;4858144;29;45996;-63
2022/10/30 08:29:40;;;;;;;8.85;4.35;;;19.20;61.40;;;;;;4856370;29;45434;-62
2022/10/30 08:32:05;;;;;;;8.85;3.70;;;19.20;61.40;;;;;;4856191;29;45313;-62
2022/10/30 08:34:33;;;;;;;10.38;3.70;;;19.30;61.60;;;;;;4858303;29;45307;-62
2022/10/30 08:36:59;;;;;;;11.10;3.72;;;19.20;61.50;;;;;;4859175;29;45355;-62
2022/10/30 08:39:24;;;;;;;8.40;3.90;;;19.30;61.60;;;;;;4857191;29;45427;-62
2022/10/30 08:41:50;;;;;;;13.20;4.10;;;19.30;61.60;;;;;;4853128;29;45332;-62
2022/10/30 08:44:15;;;;;;;12.82;4.22;;;19.30;61.60;;;;;;4869120;29;45036;-61
2022/10/30 08:46:41;;;;;;;7.82;3.70;;;19.30;61.60;;;;;;4865858;29;45668;-64
2022/10/30 08:49:06;;;;;;;12.45;3.53;;;19.30;61.70;;;;;;4858818;29;45305;-62
2022/10/30 08:51:33;;;;;;;8.43;4.03;;;19.40;61.80;;;;;;4861765;29;45244;-63
2022/10/30 08:53:58;;;;;;;5.53;3.47;;;19.40;61.90;;;;;;4859088;29;45507;-62
2022/10/30 08:56:24;;;;;;;6.82;3.28;;;19.40;61.70;;;;;;4862709;29;45959;-62
2022/10/30 08:58:50;;;;;;;8.32;3.38;;;19.50;61.70;;;;;;4864719;29;45342;-62
2022/10/30 09:01:16;;;;;;;7.38;3.83;;;19.50;62.40;;;;;;4845992;29;45425;-61
2022/10/30 09:03:43;;;;;;;10.00;3.78;;;19.50;61.50;;;;;;4857941;29;45278;-62
2022/10/30 09:06:08;;;;;;;11.32;4.15;;;19.50;61.40;;;;;;4857445;29;45079;-62
2022/10/30 09:08:34;;;;;;;13.98;4.65;;;19.60;61.50;;;;;;4858561;29;45135;-62
2022/10/30 09:10:59;;;;;;;10.05;4.35;;;19.60;61.30;;;;;;4857015;29;45414;-62
2022/10/30 09:13:25;;;;;;;11.60;4.68;;;19.60;61.20;;;;;;4859530;29;45460;-62
2022/10/30 09:15:50;;;;;;;10.23;4.00;;;19.70;61.10;;;;;;4861824;29;46881;-61
2022/10/30 09:18:16;;;;;;;10.07;4.25;;;19.70;60.90;;;;;;4866041;29;45354;-62
2022/10/30 09:20:42;;;;;;;10.02;4.07;;;19.80;60.90;;;;;;4868221;29;45499;-62
2022/10/30 09:23:07;;;;;;;9.30;4.15;;;19.80;60.80;;;;;;4867333;29;46025;-62
2022/10/30 09:25:33;;;;;;;12.32;4.55;;;19.80;60.70;;;;;;4857674;29;45500;-63
2022/10/30 09:27:58;;;;;;;8.70;4.55;;;19.90;60.70;;;;;;4860967;29;45592;-65
2022/10/30 09:30:24;;;;;;;10.70;4.43;;;19.90;60.70;;;;;;4858156;29;45290;-62
2022/10/30 09:32:54;;;;;;;6.90;3.83;;;19.90;60.60;;;;;;4866456;29;45089;-64
2022/10/30 09:35:19;;;;;;;10.75;4.07;;;19.90;60.60;;;;;;4865995;29;46304;-65
2022/10/30 09:37:45;;;;;;;7.30;4.20;;;20.00;60.50;;;;;;4852595;29;45379;-65
2022/10/30 09:40:17;;;;;;;12.73;4.10;;;20.00;60.40;;;;;;4861251;29;45320;-63
2022/10/30 09:42:47;;;;;;;10.15;3.85;;;20.00;60.50;;;;;;4868790;29;45404;-62
2022/10/30 09:45:31;;;;;;;12.52;3.97;;;20.10;60.40;;;;;;4858426;29;46110;-64
2022/10/30 09:48:15;;;;;;;8.95;4.20;;;20.10;60.50;;;;;;4863011;29;46348;-63
2022/10/30 09:51:04;;;;;;;8.52;3.80;;;20.10;60.30;;;;;;4866211;29;45277;-66
2022/10/30 09:53:55;;;;;;;7.85;3.55;;;20.20;60.40;;;;;;4872104;29;45158;-64
2022/10/30 09:56:28;;;;;;;13.40;3.60;;;20.20;60.50;;;;;;4856715;29;45741;-62
2022/10/30 09:59:36;;;;;;;11.63;3.78;;;20.20;60.40;;;;;;4840782;29;45385;-64
2022/10/30 10:02:16;;;;;;;10.50;3.42;;;20.20;60.40;;;;;;4839077;29;45247;-63
2022/10/30 10:04:47;;;;;;;8.30;3.70;;;20.20;60.20;;;;;;4856892;29;45044;-64
2022/10/30 10:07:20;;;;;;;11.90;4.38;;;20.30;60.10;;;;;;4859824;29;46276;-64
2022/10/30 10:09:46;;;;;;;13.68;4.07;;;20.30;60.00;;;;;;4857186;29;45627;-64
2022/10/30 10:12:17;;;;;;;11.13;3.88;;;20.30;59.90;;;;;;4859038;29;45595;-65
2022/10/30 10:14:44;;;;;;;14.30;3.30;;;20.30;59.90;;;;;;4850938;29;45228;-68
2022/10/30 10:17:13;;;;;;;8.70;3.50;;;20.40;59.80;;;;;;4856342;29;45982;-64
2022/10/30 10:19:43;;;;;;;8.73;3.58;;;20.40;59.90;;;;;;4861956;29;44997;-61
2022/10/30 10:22:24;;;;;;;8.38;3.72;;;20.30;59.80;;;;;;4861357;29;45274;-62
2022/10/30 10:24:50;;;;;;;8.38;3.72;;;20.40;59.90;;;;;;4858175;29;45448;-64
2022/10/30 10:27:39;;;;;;;9.07;4.07;;;20.40;59.80;;;;;;4851604;29;46029;-63
2022/10/30 10:30:09;;;;;;;8.00;3.40;;;20.40;59.70;;;;;;4855103;29;45224;-64
2022/10/30 10:32:53;;;;;;;9.70;3.45;;;20.50;59.70;;;;;;4858276;29;45551;-62
2022/10/30 10:35:49;;;;;;;6.45;3.25;;;20.50;59.80;;;;;;4855600;29;46407;-62
2022/10/30 10:38:21;;;;;;;8.80;3.67;;;20.50;59.80;;;;;;4845264;29;46857;-61
2022/10/30 10:41:14;;;;;;;9.52;3.60;;;20.50;59.70;;;;;;4850991;29;45624;-62
2022/10/30 10:44:01;;;;;;;10.70;3.67;;;20.50;59.70;;;;;;4851671;29;45053;-63
2022/10/30 10:46:48;;;;;;;11.07;3.88;;;20.50;59.70;;;;;;4857427;29;45223;-62
2022/10/30 10:49:19;;;;;;;10.95;3.65;;;20.60;59.70;;;;;;4860328;29;46761;-62
2022/10/30 10:51:51;;;;;;;12.13;3.92;;;20.60;59.50;;;;;;4863357;29;45130;-62
2022/10/30 10:54:33;;;;;;;7.18;3.35;;;20.60;59.50;;;;;;4859261;29;45657;-61
2022/10/30 10:56:59;;;;;;;11.00;4.13;;;20.60;59.50;;;;;;4845302;29;45706;-63
2022/10/30 10:59:35;;;;;;;7.45;3.78;;;20.60;59.40;;;;;;4846166;29;47007;-62
2022/10/30 11:02:23;;;;;;;10.15;3.92;;;20.60;59.40;;;;;;4855894;29;46799;-60
2022/10/30 11:04:50;;;;;;;12.32;4.40;;;20.70;59.60;;;;;;4859385;29;45202;-62
2022/10/30 11:07:21;;;;;;;7.88;3.83;;;20.70;59.40;;;;;;4860591;29;45414;-62
2022/10/30 11:09:53;;;;;;;9.05;4.10;;;20.70;59.50;;;;;;4862426;29;46113;-61
2022/10/30 11:12:22;;;;;;;9.13;3.22;;;20.70;59.40;;;;;;4865580;29;45377;-61
2022/10/30 11:14:47;;;;;;;7.45;3.35;;;20.70;59.40;;;;;;4861297;29;45431;-62
2022/10/30 11:17:16;;;;;;;8.90;3.50;;;20.70;59.40;;;;;;4856749;29;45339;-61
2022/10/30 11:19:41;;;;;;;6.90;3.85;;;20.70;59.40;;;;;;4860173;29;47350;-62
2022/10/30 11:22:15;;;;;;;7.15;3.45;;;20.70;59.30;;;;;;4861407;29;45362;-63
2022/10/30 11:24:40;;;;;;;6.95;3.25;;;20.80;59.30;;;;;;4842879;29;44789;-62
2022/10/30 11:27:27;;;;;;;8.27;3.75;;;20.70;59.30;;;;;;4857616;29;45000;-63
2022/10/30 11:30:03;;;;;;;9.57;3.72;;;20.80;59.50;;;;;;4859386;29;45528;-62
2022/10/30 11:32:30;;;;;;;9.10;3.40;;;20.80;59.30;;;;;;4856429;29;45306;-61
2022/10/30 11:35:07;;;;;;;6.68;3.42;;;20.80;59.30;;;;;;4858452;29;45337;-63
2022/10/30 11:37:35;;;;;;;7.40;2.88;;;20.80;59.30;;;;;;4861133;29;45246;-63
2022/10/30 11:40:10;;;;;;;11.68;3.90;;;20.80;59.20;;;;;;4859069;29;45887;-62
2022/10/30 11:42:36;;;;;;;6.80;3.75;;;20.80;59.30;;;;;;4859797;29;45424;-62
2022/10/30 11:45:02;;;;;;;12.52;3.38;;;20.80;59.20;;;;;;4867515;29;45311;-62
2022/10/30 11:47:32;;;;;;;7.55;3.75;;;20.80;59.20;;;;;;4859441;29;45555;-62
2022/10/30 11:50:02;;;;;;;8.25;3.97;;;20.80;59.20;;;;;;4863362;29;46079;-62
2022/10/30 11:52:27;;;;;;;10.82;3.72;;;20.90;59.30;;;;;;4865224;29;45643;-62
2022/10/30 11:55:18;;;;;;;8.40;3.35;;;20.90;59.30;;;;;;4851554;29;45380;-60
2022/10/30 11:57:49;;;;;;;10.05;3.70;;;20.90;59.30;;;;;;4857267;29;44779;-63
2022/10/30 12:00:20;;;;;;;10.70;3.80;;;20.90;59.20;;;;;;4859119;29;46283;-63
2022/10/30 12:02:48;;;;;;;10.50;3.80;;;21.00;59.20;;;;;;4846439;29;45190;-62
2022/10/30 12:05:28;;;;;;;9.23;3.58;;;20.90;59.20;;;;;;4858523;29;45679;-63
2022/10/30 12:08:07;;;;;;;6.93;3.42;;;21.00;59.20;;;;;;4860404;29;44772;-62
2022/10/30 12:10:54;;;;;;;12.10;3.60;;;21.00;59.10;;;;;;4856756;29;45976;-63
2022/10/30 12:13:20;;;;;;;7.50;3.83;;;21.00;59.10;;;;;;4852711;29;45252;-62
2022/10/30 12:15:47;;;;;;;7.82;3.95;;;21.00;59.10;;;;;;4845239;29;44633;-63
2022/10/30 12:18:21;;;;;;;7.25;3.75;;;21.00;59.10;;;;;;4861376;29;45310;-63
2022/10/30 12:20:50;;;;;;;11.00;3.97;;;21.00;59.10;;;;;;4856818;29;46193;-62
2022/10/30 12:23:19;;;;;;;12.35;3.95;;;21.00;59.10;;;;;;4849131;29;45266;-63
2022/10/30 12:25:48;;;;;;;6.90;3.63;;;21.10;59.10;;;;;;4860855;29;45527;-62
2022/10/30 12:28:22;;;;;;;8.82;4.30;;;21.10;59.20;;;;;;4861202;29;45654;-62
2022/10/30 12:31:12;;;;;;;9.48;3.78;;;21.10;59.10;;;;;;4846203;29;46152;-63
2022/10/30 12:33:44;;;;;;;6.55;3.28;;;21.10;59.20;;;;;;4842071;29;45204;-62
2022/10/30 12:36:15;;;;;;;12.65;3.95;;;21.10;59.20;;;;;;4856462;29;44678;-61
2022/10/30 12:39:11;;;;;;;9.10;3.72;;;21.10;59.10;;;;;;4858201;29;45401;-63
2022/10/30 12:42:04;;;;;;;10.77;3.30;;;21.10;59.50;;;;;;4847208;29;46969;-62
2022/10/30 12:44:58;;;;;;;8.27;3.83;;;21.10;59.30;;;;;;4856208;29;45279;-63
2022/10/30 12:47:38;;;;;;;7.05;3.50;;;21.10;59.20;;;;;;4859545;29;45882;-61
2022/10/30 12:50:12;;;;;;;9.40;3.95;;;21.10;59.40;;;;;;4861636;29;45495;-62
2022/10/30 12:52:46;;;;;;;11.55;3.50;;;21.20;59.40;;;;;;4862664;29;46824;-62
2022/10/30 12:55:30;;;;;;;;;;;21.20;59.20;;;;;;4860318;29;45528;-62
2022/10/30 12:58:09;;;;;;;8.40;3.35;;;21.20;59.30;;;;;;4861416;29;44714;-63
2022/10/30 13:00:40;;;;;;;9.07;4.00;;;21.20;59.20;;;;;;4858134;29;45328;-62
2022/10/30 13:03:29;;;;;;;11.45;4.50;;;21.20;59.30;;;;;;4859583;29;45325;-62
2022/10/30 13:05:58;;;;;;;9.45;4.20;;;21.20;59.40;;;;;;4860202;29;45286;-61
2022/10/30 13:08:40;;;;;;;9.73;4.35;;;21.20;59.30;;;;;;4857731;29;45597;-62
2022/10/30 13:11:20;;;;;;;8.73;3.63;;;21.20;59.60;;;;;;4858868;29;45296;-63
2022/10/30 13:13:50;;;;;;;10.88;4.47;;;21.20;59.50;;;;;;4862013;29;46004;-63
2022/10/30 13:16:25;;;;;;;7.70;3.72;;;21.20;59.60;;;;;;4859520;29;45456;-61
2022/10/30 13:18:52;;;;;;;7.38;3.83;;;21.30;59.70;;;;;;4863045;29;44745;-62
2022/10/30 13:21:25;;;;;;;12.38;3.97;;;21.30;59.60;;;;;;4858223;29;46402;-63
2022/10/30 13:23:52;;;;;;;11.05;3.95;;;21.30;59.50;;;;;;4863548;29;46237;-62
2022/10/30 13:26:32;;;;;;;9.13;3.92;;;21.30;59.60;;;;;;4855652;29;45338;-61
2022/10/30 13:29:23;;;;;;;9.45;4.13;;;21.30;60.30;;;;;;4859444;29;45221;-62
2022/10/30 13:32:12;;;;;;;7.00;3.55;;;21.30;59.70;;;;;;4861845;29;44899;-62
2022/10/30 13:35:04;;;;;;;9.57;3.63;;;21.30;59.70;;;;;;4856334;29;46035;-60
2022/10/30 13:37:38;;;;;;;10.55;4.15;;;21.30;59.80;;;;;;4858090;29;45414;-62
2022/10/30 13:40:39;;;;;;;14.45;4.00;;;21.30;59.60;;;;;;4857197;29;45682;-62
2022/10/30 13:43:41;;;;;;;8.10;3.60;;;21.30;59.50;;;;;;4877486;29;45200;-61
2022/10/30 13:46:18;;;;;;;8.48;3.55;;;21.30;59.60;;;;;;4865219;29;47087;-61
2022/10/30 13:48:55;;;;;;;11.90;3.83;;;21.30;59.30;;;;;;4855917;29;45595;-61
2022/10/30 13:51:46;;;;;;;9.48;3.70;;;21.30;59.30;;;;;;4855547;29;45364;-62
2022/10/30 13:54:19;;;;;;;8.23;4.03;;;21.40;59.50;;;;;;4854846;29;45236;-62
2022/10/30 13:56:46;;;;;;;8.18;3.30;;;21.30;59.30;;;;;;4860687;29;46072;-63
2022/10/30 13:59:40;;;;;;;10.00;3.97;;;21.30;59.20;;;;;;4862834;29;45405;-63
2022/10/30 14:02:20;;;;;;;9.00;3.40;;;21.30;59.20;;;;;;4866833;29;45441;-62
2022/10/30 14:05:24;;;;;;;9.60;3.92;;;21.40;59.30;;;;;;4867222;29;45318;-62
2022/10/30 14:07:53;;;;;;;8.02;3.55;;;21.40;59.10;;;;;;4852591;29;47200;-62
2022/10/30 14:10:26;;;;;;;10.23;3.67;;;21.40;59.10;;;;;;4861523;29;44699;-63
2022/10/30 14:12:55;;;;;;;9.45;4.18;;;21.40;59.10;;;;;;4861349;29;45220;-63
2022/10/30 14:15:30;;;;;;;11.93;3.53;;;21.40;59.10;;;;;;4863252;29;46448;-63
2022/10/30 14:18:10;;;;;;;13.65;3.78;;;21.40;59.00;;;;;;4862328;29;46194;-63
2022/10/30 14:20:37;;;;;;;6.68;3.17;;;21.40;58.90;;;;;;4853932;29;45677;-62
2022/10/30 14:23:07;;;;;;;8.55;3.45;;;21.40;58.90;;;;;;4865919;29;45756;-64
2022/10/30 14:25:33;;;;;;;10.82;3.85;;;21.40;58.80;;;;;;4864328;29;45282;-63
2022/10/30 14:27:58;;;;;;;10.38;3.78;;;21.40;58.80;;;;;;4863096;29;45977;-63
2022/10/30 14:30:24;;;;;;;8.27;3.75;;;21.40;58.70;;;;;;4860551;29;45198;-61
2022/10/30 14:32:50;;;;;;;12.38;3.80;;;21.40;58.70;;;;;;4868389;29;45377;-62
2022/10/30 14:35:32;;;;;;;8.77;4.03;;;21.40;58.70;;;;;;4867016;29;44704;-62
2022/10/30 14:38:14;;;;;;;8.32;3.42;;;21.40;58.60;;;;;;4861490;29;46214;-60
2022/10/30 14:40:52;;;;;;;9.93;3.78;;;21.40;58.60;;;;;;4858401;29;44757;-62
2022/10/30 14:43:25;;;;;;;10.13;3.55;;;21.40;58.70;;;;;;4860105;29;45368;-63
2022/10/30 14:45:56;;;;;;;11.27;3.47;;;21.40;58.70;;;;;;4865255;29;45780;-63
2022/10/30 14:48:41;;;;;;;11.85;4.22;;;21.40;58.70;;;;;;4860584;29;46149;-63
2022/10/30 14:51:23;;;;;;;8.05;3.70;;;21.40;58.60;;;;;;4860433;29;45203;-65
2022/10/30 14:53:57;;;;;;;11.48;3.60;;;21.50;58.50;;;;;;4846835;29;44795;-61
2022/10/30 14:56:39;;;;;;;10.85;4.82;;;21.50;58.60;;;;;;4866588;29;45196;-62
2022/10/30 14:59:13;;;;;;;17.52;5.53;;;21.40;58.80;;;;;;4867196;29;45564;-62
2022/10/30 15:02:01;;;;;;;14.63;5.28;;;21.40;58.90;;;;;;4860590;29;45282;-61
2022/10/30 15:04:38;;;;;;;12.18;5.82;;;21.50;58.80;;;;;;4856408;29;45298;-63
2022/10/30 15:07:38;;;;;;;14.38;5.47;;;21.50;58.80;;;;;;4863800;29;45313;-62
2022/10/30 15:10:22;;;;;;;14.63;4.82;;;21.40;58.70;;;;;;4852616;29;45238;-62
2022/10/30 15:12:56;;;;;;;14.00;5.53;;;21.40;59.20;;;;;;4862140;29;46224;-63
2022/10/30 15:15:21;;;;;;;15.60;6.20;;;21.40;59.80;;;;;;4854745;29;45357;-62
2022/10/30 15:17:49;;;;;;;10.80;5.80;;;21.50;59.90;;;;;;4866425;29;45287;-62
2022/10/30 15:20:20;;;;;;;16.77;5.22;;;21.40;59.70;;;;;;4865881;29;45723;-62
2022/10/30 15:22:52;;;;;;;9.55;5.38;;;21.40;59.80;;;;;;4862015;29;44856;-62
2022/10/30 15:25:23;;;;;;;12.23;5.10;;;21.50;59.90;;;;;;4860262;29;45345;-63
2022/10/30 15:27:53;;;;;;;13.10;5.53;;;21.40;59.80;;;;;;4859135;29;44838;-62
2022/10/30 15:30:20;;;;;;;14.57;5.97;;;21.50;60.10;;;;;;4838219;29;45785;-62
2022/10/30 15:32:46;;;;;;;13.82;5.68;;;21.50;60.30;;;;;;4864332;29;45262;-62
2022/10/30 15:35:22;;;;;;;11.52;5.30;;;21.50;60.40;;;;;;4861183;29;45366;-62
2022/10/30 15:38:02;;;;;;;20.15;5.35;;;21.40;61.20;;;;;;4865046;29;45323;-62
2022/10/30 15:40:28;;;;;;;12.57;5.13;;;21.40;61.20;;;;;;4861656;29;47176;-62
2022/10/30 15:42:54;;;;;;;12.57;5.13;;;21.40;60.60;;;;;;4849457;29;45243;-62
2022/10/30 15:45:27;;;;;;;10.70;4.88;;;21.40;60.30;;;;;;4858878;29;45469;-61
2022/10/30 15:47:56;;;;;;;;;;;21.40;60.30;;;;;;4861878;29;45350;-63
2022/10/30 15:50:21;;;;;;;21.00;10.07;;;21.40;61.10;;;;;;4865338;29;46022;-63
2022/10/30 15:52:47;;;;;;;16.90;8.65;;;21.40;60.40;;;;;;4846997;29;45607;-63
2022/10/30 15:55:14;;;;;;;13.15;6.88;;;21.40;61.30;;;;;;4856911;29;45100;-62
2022/10/30 15:57:46;;;;;;;13.50;6.32;;;21.40;60.60;;;;;;4857698;29;44725;-63
2022/10/30 16:00:22;;;;;;;13.02;6.10;;;21.40;60.50;;;;;;4837700;29;45861;-63
2022/10/30 16:02:58;;;;;;;14.00;6.03;;;21.40;61.00;;;;;;4875632;29;45325;-63
2022/10/30 16:05:24;;;;;;;11.85;5.57;;;21.30;61.10;;;;;;4858752;29;45355;-63
2022/10/30 16:07:50;;;;;;;11.60;5.45;;;21.30;61.00;;;;;;4858390;29;45327;-63
2022/10/30 16:10:16;;;;;;;12.23;5.63;;;21.30;60.80;;;;;;4852923;29;46936;-62
2022/10/30 16:12:41;;;;;;;13.35;5.68;;;21.30;60.80;;;;;;4848230;29;45104;-61
2022/10/30 16:15:14;;;;;;;10.55;5.75;;;21.30;60.60;;;;;;4849962;29;45291;-62
2022/10/30 16:17:40;;;;;;;;;;;21.30;60.60;;;;;;4859350;29;45325;-62
2022/10/30 16:20:06;;;;;;;10.63;5.30;;;21.30;60.90;;;;;;4859271;29;46775;-63
2022/10/30 16:22:35;;;;;;;12.40;5.95;;;21.30;60.40;;;;;;4854994;29;45614;-63
2022/10/30 16:25:01;;;;;;;10.32;5.75;;;21.40;60.40;;;;;;4860806;29;45306;-63
2022/10/30 16:27:27;;;;;;;14.55;5.57;;;21.30;60.30;;;;;;4847810;29;45637;-63
2022/10/30 16:29:56;;;;;;;12.93;5.47;;;21.30;60.30;;;;;;4859027;29;46050;-63
2022/10/30 16:32:28;;;;;;;12.57;5.95;;;21.30;60.40;;;;;;4852789;29;46428;-62
2022/10/30 16:34:57;;;;;;;14.60;5.70;;;21.30;60.20;;;;;;4856552;29;45346;-63
2022/10/30 16:37:35;;;;;;;15.88;6.57;;;21.30;60.10;;;;;;4868795;29;45356;-63
2022/10/30 16:40:12;;;;;;;12.70;5.25;;;21.30;60.10;;;;;;4844204;29;45934;-63
2022/10/30 16:42:38;;;;;;;11.85;5.47;;;21.30;60.10;;;;;;4850931;29;44851;-63
2022/10/30 16:45:10;;;;;;;10.88;4.65;;;21.30;60.10;;;;;;4857364;29;44761;-63
2022/10/30 16:47:37;;;;;;;17.05;5.63;;;21.20;60.10;;;;;;4854161;29;46996;-63
2022/10/30 16:50:03;;;;;;;16.92;5.22;;;21.20;60.10;;;;;;4858171;29;46144;-62
2022/10/30 16:52:31;;;;;;;15.38;5.55;;;21.20;60.00;;;;;;4841958;29;45738;-63
2022/10/30 16:55:18;;;;;;;14.80;5.65;;;21.20;60.00;;;;;;4859899;29;45906;-63
2022/10/30 16:57:44;;;;;;;9.32;5.38;;;21.20;60.10;;;;;;4859877;29;45037;-63
2022/10/30 17:00:36;;;;;;;12.00;5.68;;;21.10;60.00;;;;;;4856525;29;46164;-63
2022/10/30 17:03:09;;;;;;;15.65;6.38;;;21.20;59.80;;;;;;4855887;29;45576;-62